Time;durP1;ratioP1;P1;durP2;ratioP2;P2;SDS_P1;SDS_P2;PMS_P1;PMS_P2;Temp;Humidity;BMP_temperature;BMP_pressure;BME280_temperature;BME280_humidity;BME280_pressure;Samples;Min_cycle;Max_cycle;Signal;HPM_P1;HPM_P2
2023/08/03 00:01:40;;;;;;;;;;;;;;;;;;6245654;28;19909;-82
2023/08/03 00:04:41;;;;;;;;;;;;;;;;;;6246262;28;19919;-81
2023/08/03 00:07:41;;;;;;;;;;;;;;;;;;6248002;28;19925;-81
2023/08/03 00:10:41;;;;;;;;;;;;;;;;;;6259663;28;19924;-82
2023/08/03 00:13:41;;;;;;;;;;;;;;;;;;6253903;28;19920;-83
2023/08/03 00:16:41;;;;;;;;;;;;;;;;;;6257988;28;19967;-81
2023/08/03 00:19:41;;;;;;;;;;;;;;;;;;6254955;28;19909;-82
2023/08/03 00:22:46;;;;;;;;;;;;;;;;;;6254807;28;19909;-83
2023/08/03 00:25:47;;;;;;;;;;;;;;;;;;6257494;28;19948;-82
2023/08/03 00:28:47;;;;;;;;;;;;;;;;;;6254081;28;19911;-84
2023/08/03 00:31:47;;;;;;;;;;;;;;;;;;6247573;28;19916;-83
2023/08/03 00:34:48;;;;;;;;;;;;;;;;;;6248146;28;19963;-83
2023/08/03 00:37:48;;;;;;;;;;;;;;;;;;6254809;28;19909;-83
2023/08/03 00:40:48;;;;;;;;;;;;;;;;;;6234561;28;19917;-83
2023/08/03 00:43:48;;;;;;;;;;;;;;;;;;6260006;28;19909;-83
2023/08/03 00:46:48;;;;;;;;;;;;;;;;;;6258287;28;19908;-82
2023/08/03 00:49:49;;;;;;;;;;;;;;;;;;6246702;28;19923;-83
2023/08/03 00:52:49;;;;;;;;;;;;;;;;;;6252681;28;19920;-83
2023/08/03 00:55:49;;;;;;;;;;;;;;;;;;6244128;28;19913;-83
2023/08/03 00:58:49;;;;;;;;;;;;;;;;;;6247915;28;19908;-83
2023/08/03 01:01:51;;;;;;;;;;;;;;;;;;6254675;28;19923;-83
2023/08/03 01:04:51;;;;;;;;;;;;;;;;;;6251777;28;19952;-83
2023/08/03 01:07:51;;;;;;;;;;;;;;;;;;6227796;28;19967;-83
2023/08/03 01:10:51;;;;;;;;;;;;;;;;;;6226262;28;19906;-82
2023/08/03 01:13:51;;;;;;;;;;;;;;;;;;6216705;28;19905;-82
2023/08/03 01:16:52;;;;;;;;;;;;;;;;;;6221425;28;20292;-82
2023/08/03 01:19:53;;;;;;;;;;;;;;;;;;6226477;28;19905;-83
2023/08/03 01:22:53;;;;;;;;;;;;;;;;;;6218582;28;20338;-82
2023/08/03 01:25:53;;;;;;;;;;;;;;;;;;6232161;28;19909;-82
2023/08/03 01:28:54;;;;;;;;;;;;;;;;;;6229247;28;19909;-83
2023/08/03 01:31:56;;;;;;;;;;;;;;;;;;6226911;28;19916;-82
2023/08/03 01:34:56;;;;;;;;;;;;;;;;;;6237376;28;19913;-82
2023/08/03 01:37:56;;;;;;;;;;;;;;;;;;6240514;28;19909;-80
2023/08/03 01:40:59;;;;;;;;;;;;;;;;;;6240726;28;19917;-81
2023/08/03 01:44:00;;;;;;;;;;;;;;;;;;6234726;28;19959;-82
2023/08/03 01:47:00;;;;;;;;;;;;;;;;;;6216820;28;20323;-82
2023/08/03 01:50:01;;;;;;;;;;;;;;;;;;6222164;28;19905;-81
2023/08/03 01:53:01;;;;;;;;;;;;;;;;;;6217375;28;19975;-82
2023/08/03 01:56:01;;;;;;;;;;;;;;;;;;6236115;28;20003;-82
2023/08/03 01:59:01;;;;;;;;;;;;;;;;;;6214944;28;19917;-81
2023/08/03 02:02:01;;;;;;;;;;;;;;;;;;6219239;28;19910;-81
2023/08/03 02:05:02;;;;;;;;;;;;;;;;;;6228034;28;19992;-81
2023/08/03 02:08:02;;;;;;;;;;;;;;;;;;6243420;28;19921;-82
2023/08/03 02:11:02;;;;;;;;;;;;;;;;;;6251044;28;19909;-82
2023/08/03 02:14:03;;;;;;;;;;;;;;;;;;6246195;28;19909;-81
2023/08/03 02:17:03;;;;;;;;;;;;;;;;;;6242403;28;20054;-81
2023/08/03 02:20:03;;;;;;;;;;;;;;;;;;6242371;28;19909;-82
2023/08/03 02:23:03;;;;;;;;;;;;;;;;;;6243826;28;20660;-82
2023/08/03 02:26:04;;;;;;;;;;;;;;;;;;6223217;28;20674;-82
2023/08/03 02:29:04;;;;;;;;;;;;;;;;;;6241352;28;19986;-82
2023/08/03 02:32:05;;;;;;;;;;;;;;;;;;6236823;28;20276;-81
2023/08/03 02:35:05;;;;;;;;;;;;;;;;;;6245840;28;19999;-81
2023/08/03 02:38:05;;;;;;;;;;;;;;;;;;6243133;28;19913;-81
2023/08/03 02:41:05;;;;;;;;;;;;;;;;;;6253430;28;19908;-80
2023/08/03 02:44:05;;;;;;;;;;;;;;;;;;6244305;28;19909;-81
2023/08/03 02:47:05;;;;;;;;;;;;;;;;;;6244079;28;19909;-81
2023/08/03 02:50:05;;;;;;;;;;;;;;;;;;6227075;28;19905;-81
2023/08/03 02:53:05;;;;;;;;;;;;;;;;;;6249615;28;19905;-81
2023/08/03 02:56:05;;;;;;;;;;;;;;;;;;6244652;28;19912;-82
2023/08/03 02:59:05;;;;;;;;;;;;;;;;;;6241130;28;20462;-81
2023/08/03 03:02:06;;;;;;;;;;;;;;;;;;6243893;28;19912;-81
2023/08/03 03:05:06;;;;;;;;;;;;;;;;;;6247165;28;20323;-81
2023/08/03 03:08:06;;;;;;;;;;;;;;;;;;6258284;28;19913;-82
2023/08/03 03:11:06;;;;;;;;;;;;;;;;;;6255028;28;19969;-84
2023/08/03 03:14:07;;;;;;;;;;;;;;;;;;6256172;28;19909;-83
2023/08/03 03:17:07;;;;;;;;;;;;;;;;;;6251146;28;20287;-83
2023/08/03 03:20:07;;;;;;;;;;;;;;;;;;6248176;28;19950;-83
2023/08/03 03:23:08;;;;;;;;;;;;;;;;;;6246511;28;19916;-80
2023/08/03 03:26:08;;;;;;;;;;;;;;;;;;6246372;28;20322;-79
2023/08/03 03:29:08;;;;;;;;;;;;;;;;;;6250816;28;19909;-87
2023/08/03 03:32:08;;;;;;;;;;;;;;;;;;6250572;28;19956;-83
2023/08/03 03:35:08;;;;;;;;;;;;;;;;;;6243067;28;19913;-82
2023/08/03 03:38:08;;;;;;;;;;;;;;;;;;6244620;28;20096;-84
2023/08/03 03:41:09;;;;;;;;;;;;;;;;;;6245600;28;19913;-81
2023/08/03 03:44:09;;;;;;;;;;;;;;;;;;6253299;28;19912;-82
2023/08/03 03:47:09;;;;;;;;;;;;;;;;;;6249892;28;20003;-82
2023/08/03 03:50:09;;;;;;;;;;;;;;;;;;6253297;28;20295;-88
2023/08/03 03:53:09;;;;;;;;;;;;;;;;;;6252876;28;19909;-87
2023/08/03 03:56:10;;;;;;;;;;;;;;;;;;6250180;28;19912;-85
2023/08/03 03:59:11;;;;;;;;;;;;;;;;;;6251469;28;19928;-86
2023/08/03 04:02:11;;;;;;;;;;;;;;;;;;6251493;28;19996;-84
2023/08/03 04:05:11;;;;;;;;;;;;;;;;;;6249072;28;19913;-84
2023/08/03 04:08:11;;;;;;;;;;;;;;;;;;6255694;28;19917;-87
2023/08/03 04:11:12;;;;;;;;;;;;;;;;;;6262944;28;20434;-88
2023/08/03 04:14:13;;;;;;;;;;;;;;;;;;6257123;28;19913;-84
2023/08/03 04:17:13;;;;;;;;;;;;;;;;;;6262782;28;19958;-86
2023/08/03 04:20:13;;;;;;;;;;;;;;;;;;6230154;28;19905;-85
2023/08/03 04:23:13;;;;;;;;;;;;;;;;;;6232751;28;19996;-84
2023/08/03 04:26:13;;;;;;;;;;;;;;;;;;6256886;28;19992;-78
2023/08/03 04:29:13;;;;;;;;;;;;;;;;;;6267680;28;19956;-89
2023/08/03 04:32:13;;;;;;;;;;;;;;;;;;6252648;28;19916;-83
2023/08/03 04:35:14;;;;;;;;;;;;;;;;;;6249993;28;19913;-75
2023/08/03 04:38:14;;;;;;;;;;;;;;;;;;6249168;28;20545;-75
2023/08/03 04:41:16;;;;;;;;;;;;;;;;;;6257920;28;19991;-76
2023/08/03 04:44:16;;;;;;;;;;;;;;;;;;6240695;28;19909;-75
2023/08/03 04:47:16;;;;;;;;;;;;;;;;;;6245205;28;19955;-88
2023/08/03 04:50:19;;;;;;;;;;;;;;;;;;6252206;28;19914;-88
2023/08/03 04:53:19;;;;;;;;;;;;;;;;;;6248173;28;19913;-81
2023/08/03 04:56:19;;;;;;;;;;;;;;;;;;6260919;28;19924;-84
2023/08/03 04:59:19;;;;;;;;;;;;;;;;;;6247542;28;19960;-81
2023/08/03 05:02:19;;;;;;;;;;;;;;;;;;6240803;28;19960;-83
2023/08/03 05:05:19;;;;;;;;;;;;;;;;;;6257321;28;19917;-87
2023/08/03 05:08:22;;;;;;;;;;;;;;;;;;6247258;28;19920;-88
2023/08/03 05:11:22;;;;;;;;;;;;;;;;;;6235570;28;19909;-82
2023/08/03 05:14:23;;;;;;;;;;;;;;;;;;6254167;28;19920;-89
2023/08/03 05:17:23;;;;;;;;;;;;;;;;;;6244659;28;19947;-83
2023/08/03 05:20:23;;;;;;;;;;;;;;;;;;6246983;28;19909;-90
2023/08/03 05:23:24;;;;;;;;;;;;;;;;;;6250775;28;19912;-85
2023/08/03 05:26:26;;;;;;;;;;;;;;;;;;6236828;28;19913;-85
2023/08/03 05:29:26;;;;;;;;;;;;;;;;;;6251316;28;20252;-85
2023/08/03 05:32:26;;;;;;;;;;;;;;;;;;6240647;28;19920;-82
2023/08/03 05:35:26;;;;;;;;;;;;;;;;;;6240332;28;19913;-78
2023/08/03 05:38:26;;;;;;;;;;;;;;;;;;6243590;28;19947;-79
2023/08/03 05:41:27;;;;;;;;;;;;;;;;;;6243293;28;20402;-85
2023/08/03 05:44:27;;;;;;;;;;;;;;;;;;6225448;28;19940;-81
2023/08/03 05:47:27;;;;;;;;;;;;;;;;;;6237066;28;19913;-83
2023/08/03 05:50:28;;;;;;;;;;;;;;;;;;6244053;28;19947;-85
2023/08/03 05:53:28;;;;;;;;;;;;;;;;;;6242008;28;20284;-82
2023/08/03 05:56:28;;;;;;;;;;;;;;;;;;6243113;28;20116;-82
2023/08/03 05:59:28;;;;;;;;;;;;;;;;;;6238276;28;19986;-84
2023/08/03 06:02:28;;;;;;;;;;;;;;;;;;6243313;28;19913;-83
2023/08/03 06:05:28;;;;;;;;;;;;;;;;;;6242528;28;20366;-82
2023/08/03 06:08:28;;;;;;;;;;;;;;;;;;6261720;28;19925;-83
2023/08/03 06:11:28;;;;;;;;;;;;;;;;;;6251549;28;19909;-83
2023/08/03 06:14:31;;;;;;;;;;;;;;;;;;6245350;28;20375;-75
2023/08/03 06:17:31;;;;;;;;;;;;;;;;;;6236481;28;19917;-75
2023/08/03 06:20:31;;;;;;;;;;;;;;;;;;6236336;28;20099;-75
2023/08/03 06:23:31;;;;;;;;;;;;;;;;;;6237639;28;20391;-75
2023/08/03 06:26:31;;;;;;;;;;;;;;;;;;6239838;28;19917;-75
2023/08/03 06:29:31;;;;;;;;;;;;;;;;;;6241059;28;20281;-75
2023/08/03 06:32:32;;;;;;;;;;;;;;;;;;6241646;28;19944;-75
2023/08/03 06:35:32;;;;;;;;;;;;;;;;;;6241937;28;19920;-75
2023/08/03 06:38:32;;;;;;;;;;;;;;;;;;6241818;28;19908;-75
2023/08/03 06:41:32;;;;;;;;;;;;;;;;;;6239889;28;20379;-75
2023/08/03 06:44:32;;;;;;;;;;;;;;;;;;6237321;28;19913;-75
2023/08/03 06:47:32;;;;;;;;;;;;;;;;;;6242127;28;19909;-76
2023/08/03 06:50:33;;;;;;;;;;;;;;;;;;6232891;28;19916;-75
2023/08/03 06:53:33;;;;;;;;;;;;;;;;;;6237631;28;19909;-75
2023/08/03 06:56:36;;;;;;;;;;;;;;;;;;6239548;28;19947;-76
2023/08/03 06:59:38;;;;;;;;;;;;;;;;;;6233864;28;20372;-76
2023/08/03 07:02:38;;;;;;;;;;;;;;;;;;6224091;28;19909;-76
2023/08/03 07:05:38;;;;;;;;;;;;;;;;;;6245765;28;19927;-86
2023/08/03 07:08:38;;;;;;;;;;;;;;;;;;6251280;28;19948;-84
2023/08/03 07:11:39;;;;;;;;;;;;;;;;;;6243228;28;19905;-87
2023/08/03 07:14:39;;;;;;;;;;;;;;;;;;6246898;28;20474;-77
2023/08/03 07:17:39;;;;;;;;;;;;;;;;;;6245348;28;19913;-89
2023/08/03 07:20:39;;;;;;;;;;;;;;;;;;6244236;28;19905;-84
2023/08/03 07:23:40;;;;;;;;;;;;;;;;;;6246934;28;20000;-83
2023/08/03 07:26:40;;;;;;;;;;;;;;;;;;6243335;28;19913;-84
2023/08/03 07:29:40;;;;;;;;;;;;;;;;;;6246388;28;19908;-83
2023/08/03 07:32:41;;;;;;;;;;;;;;;;;;6247711;28;19920;-84
2023/08/03 07:35:41;;;;;;;;;;;;;;;;;;6234279;28;19920;-86
2023/08/03 07:38:41;;;;;;;;;;;;;;;;;;6247799;28;19917;-85
2023/08/03 07:41:41;;;;;;;;;;;;;;;;;;6246739;28;19916;-83
2023/08/03 07:44:41;;;;;;;;;;;;;;;;;;6245299;28;20406;-84
2023/08/03 07:47:41;;;;;;;;;;;;;;;;;;6237058;28;19920;-85
2023/08/03 07:50:41;;;;;;;;;;;;;;;;;;6246185;28;19925;-86
2023/08/03 07:53:41;;;;;;;;;;;;;;;;;;6244765;28;19943;-86
2023/08/03 07:56:41;;;;;;;;;;;;;;;;;;6261817;28;19921;-88
2023/08/03 07:59:42;;;;;;;;;;;;;;;;;;6261053;28;19917;-86
2023/08/03 08:02:43;;;;;;;;;;;;;;;;;;6266098;28;20409;-90
2023/08/03 08:05:43;;;;;;;;;;;;;;;;;;6265145;28;20484;-89
2023/08/03 08:08:43;;;;;;;;;;;;;;;;;;6264029;28;19948;-88
2023/08/03 08:11:43;;;;;;;;;;;;;;;;;;6265181;28;19906;-90
2023/08/03 08:14:43;;;;;;;;;;;;;;;;;;6266605;28;19920;-88
2023/08/03 08:17:43;;;;;;;;;;;;;;;;;;6253107;28;19913;-88
2023/08/03 08:20:47;;;;;;;;;;;;;;;;;;6267562;28;19909;-87
2023/08/03 08:23:48;;;;;;;;;;;;;;;;;;6261143;28;19909;-86
2023/08/03 08:26:48;;;;;;;;;;;;;;;;;;6262197;28;19924;-85
2023/08/03 08:29:48;;;;;;;;;;;;;;;;;;6256892;28;19924;-85
2023/08/03 08:32:48;;;;;;;;;;;;;;;;;;6254610;28;19962;-86
2023/08/03 08:35:48;;;;;;;;;;;;;;;;;;6247699;28;19917;-78
2023/08/03 08:38:48;;;;;;;;;;;;;;;;;;6243066;28;20003;-77
2023/08/03 08:41:48;;;;;;;;;;;;;;;;;;6245086;28;19984;-78
2023/08/03 08:44:48;;;;;;;;;;;;;;;;;;6245899;28;19909;-87
2023/08/03 08:47:48;;;;;;;;;;;;;;;;;;6263668;28;19919;-85
2023/08/03 08:50:50;;;;;;;;;;;;;;;;;;6255619;28;19916;-86
2023/08/03 08:53:50;;;;;;;;;;;;;;;;;;6255510;28;19912;-86
2023/08/03 08:56:52;;;;;;;;;;;;;;;;;;6259783;28;19909;-86
2023/08/03 08:59:52;;;;;;;;;;;;;;;;;;6249401;28;20448;-87
2023/08/03 09:02:52;;;;;;;;;;;;;;;;;;6238511;28;19936;-87
2023/08/03 09:05:52;;;;;;;;;;;;;;;;;;6255371;28;20023;-84
2023/08/03 09:08:53;;;;;;;;;;;;;;;;;;6244628;28;19919;-83
2023/08/03 09:11:55;;;;;;;;;;;;;;;;;;6256151;28;19908;-85
2023/08/03 09:14:57;;;;;;;;;;;;;;;;;;6249308;28;20376;-85
2023/08/03 09:17:58;;;;;;;;;;;;;;;;;;6243929;28;19909;-84
2023/08/03 09:20:58;;;;;;;;;;;;;;;;;;6237988;28;19959;-85
2023/08/03 09:23:59;;;;;;;;;;;;;;;;;;6227211;28;19951;-82
2023/08/03 09:26:59;;;;;;;;;;;;;;;;;;6244666;28;19912;-84
2023/08/03 09:30:00;;;;;;;;;;;;;;;;;;6242467;28;19905;-83
2023/08/03 09:33:00;;;;;;;;;;;;;;;;;;6226644;28;19912;-84
2023/08/03 09:36:00;;;;;;;;;;;;;;;;;;6237619;28;19910;-85
2023/08/03 09:39:03;;;;;;;;;;;;;;;;;;6243118;28;19912;-87
2023/08/03 09:42:12;;;;;;;;;;;;;;;;;;6246819;28;19909;-85
2023/08/03 09:45:14;;;;;;;;;;;;;;;;;;6246663;28;19915;-79
2023/08/03 09:48:14;;;;;;;;;;;;;;;;;;6245101;28;19915;-78
2023/08/03 09:51:14;;;;;;;;;;;;;;;;;;6237591;28;19928;-78
2023/08/03 09:54:14;;;;;;;;;;;;;;;;;;6237941;28;19932;-77
2023/08/03 09:57:14;;;;;;;;;;;;;;;;;;6242085;28;19923;-77
2023/08/03 10:00:15;;;;;;;;;;;;;;;;;;6239488;28;19978;-78
2023/08/03 10:03:15;;;;;;;;;;;;;;;;;;6240169;28;19909;-77
2023/08/03 10:06:18;;;;;;;;;;;;;;;;;;6252410;28;19921;-87
2023/08/03 10:09:18;;;;;;;;;;;;;;;;;;6254137;28;19920;-86
2023/08/03 10:12:18;;;;;;;;;;;;;;;;;;6251732;28;19909;-88
2023/08/03 10:15:18;;;;;;;;;;;;;;;;;;6240188;28;19917;-85
2023/08/03 10:18:18;;;;;;;;;;;;;;;;;;6255930;28;19982;-84
2023/08/03 10:21:18;;;;;;;;;;;;;;;;;;6242553;28;19992;-84
2023/08/03 10:24:18;;;;;;;;;;;;;;;;;;6257922;28;19939;-83
2023/08/03 10:27:20;;;;;;;;;;;;;;;;;;6254116;28;19916;-84
2023/08/03 10:30:20;;;;;;;;;;;;;;;;;;6255974;28;19913;-90
2023/08/03 10:33:20;;;;;;;;;;;;;;;;;;6276746;28;19908;-85
2023/08/03 10:36:20;;;;;;;;;;;;;;;;;;6282316;28;19913;-84
2023/08/03 10:39:20;;;;;;;;;;;;;;;;;;6281448;28;19913;-85
2023/08/03 10:42:22;;;;;;;;;;;;;;;;;;6257559;28;19943;-86
2023/08/03 10:45:22;;;;;;;;;;;;;;;;;;6247851;28;19924;-90
2023/08/03 10:48:22;;;;;;;;;;;;;;;;;;6260713;28;19913;-85
2023/08/03 10:51:22;;;;;;;;;;;;;;;;;;6252313;28;20023;-85
2023/08/03 10:54:24;;;;;;;;;;;;;;;;;;6267959;28;20039;-85
2023/08/03 10:57:24;;;;;;;;;;;;;;;;;;6250124;28;20032;-80
2023/08/03 11:00:25;;;;;;;;;;;;;;;;;;6252818;28;19911;-78
2023/08/03 11:03:26;;;;;;;;;;;;;;;;;;6252444;28;19923;-76
2023/08/03 11:06:26;;;;;;;;;;;;;;;;;;6244508;28;20129;-77
2023/08/03 11:09:26;;;;;;;;;;;;;;;;;;6212023;28;19956;-78
2023/08/03 11:12:27;;;;;;;;;;;;;;;;;;6206794;28;19959;-77
2023/08/03 11:15:28;;;;;;;;;;;;;;;;;;6207860;28;19914;-76
2023/08/03 11:18:28;;;;;;;;;;;;;;;;;;6224786;28;19986;-77
2023/08/03 11:21:28;;;;;;;;;;;;;;;;;;6216393;28;19906;-77
2023/08/03 11:24:28;;;;;;;;;;;;;;;;;;6232043;28;19910;-90
2023/08/03 11:27:30;;;;;;;;;;;;;;;;;;6218945;28;19961;-77
2023/08/03 11:30:33;;;;;;;;;;;;;;;;;;6219573;28;20284;-77
2023/08/03 11:33:36;;;;;;;;;;;;;;;;;;6213329;28;19909;-76
2023/08/03 11:36:36;;;;;;;;;;;;;;;;;;6216904;28;19982;-77
2023/08/03 11:39:36;;;;;;;;;;;;;;;;;;6217532;28;20447;-77
2023/08/03 11:42:36;;;;;;;;;;;;;;;;;;6217618;28;19948;-77
2023/08/03 11:45:36;;;;;;;;;;;;;;;;;;6216691;28;20311;-77
2023/08/03 11:48:36;;;;;;;;;;;;;;;;;;6220209;28;20004;-77
2023/08/03 11:51:37;;;;;;;;;;;;;;;;;;6219136;28;19932;-77
2023/08/03 11:54:39;;;;;;;;;;;;;;;;;;6225817;28;20368;-77
2023/08/03 12:00:59;;;;;;;;;;;;;;;;;;6212087;28;19913;-76
2023/08/03 12:03:59;;;;;;;;;;;;;;;;;;6220962;28;20429;-77
2023/08/03 12:06:59;;;;;;;;;;;;;;;;;;6247579;28;19967;-76
2023/08/03 12:09:59;;;;;;;;;;;;;;;;;;6238919;28;19913;-76
2023/08/03 12:13:01;;;;;;;;;;;;;;;;;;6248984;28;19967;-76
2023/08/03 12:16:01;;;;;;;;;;;;;;;;;;6250278;28;19917;-77
2023/08/03 12:19:03;;;;;;;;;;;;;;;;;;6246849;28;22058;-76
2023/08/03 12:22:03;;;;;;;;;;;;;;;;;;6241767;28;20279;-75
2023/08/03 12:25:04;;;;;;;;;;;;;;;;;;6246720;28;19913;-77
2023/08/03 12:28:04;;;;;;;;;;;;;;;;;;6245589;28;19960;-77
2023/08/03 12:31:05;;;;;;;;;;;;;;;;;;6250254;28;20379;-78
2023/08/03 12:34:05;;;;;;;;;;;;;;;;;;6237695;28;19963;-76
2023/08/03 12:37:05;;;;;;;;;;;;;;;;;;6252910;28;19913;-78
2023/08/03 12:40:05;;;;;;;;;;;;;;;;;;6244993;28;19979;-77
2023/08/03 12:43:05;;;;;;;;;;;;;;;;;;6246138;28;20047;-78
2023/08/03 12:46:05;;;;;;;;;;;;;;;;;;6241791;28;19952;-86
2023/08/03 12:49:06;;;;;;;;;;;;;;;;;;6250518;28;19919;-84
2023/08/03 12:52:06;;;;;;;;;;;;;;;;;;6262819;28;19909;-86
2023/08/03 12:55:06;;;;;;;;;;;;;;;;;;6261255;28;19922;-85
2023/08/03 12:58:06;;;;;;;;;;;;;;;;;;6253423;28;19917;-86
2023/08/03 13:01:06;;;;;;;;;;;;;;;;;;6250807;28;19909;-87
2023/08/03 13:04:06;;;;;;;;;;;;;;;;;;6246582;28;19940;-86
2023/08/03 13:07:06;;;;;;;;;;;;;;;;;;6252683;28;20035;-85
2023/08/03 13:10:06;;;;;;;;;;;;;;;;;;6248627;28;19956;-87
2023/08/03 13:13:06;;;;;;;;;;;;;;;;;;6247814;28;20003;-85
2023/08/03 13:16:07;;;;;;;;;;;;;;;;;;6242717;28;20245;-86
2023/08/03 13:19:07;;;;;;;;;;;;;;;;;;6255532;28;19955;-86
2023/08/03 13:22:07;;;;;;;;;;;;;;;;;;6254996;28;20375;-86
2023/08/03 13:25:07;;;;;;;;;;;;;;;;;;6251915;28;19905;-86
2023/08/03 13:28:07;;;;;;;;;;;;;;;;;;6261490;28;19909;-83
2023/08/03 13:31:07;;;;;;;;;;;;;;;;;;6256201;28;19909;-82
2023/08/03 13:34:08;;;;;;;;;;;;;;;;;;6252208;28;20485;-80
2023/08/03 13:37:08;;;;;;;;;;;;;;;;;;6254510;28;20009;-83
2023/08/03 13:40:08;;;;;;;;;;;;;;;;;;6248589;28;19908;-84
2023/08/03 13:43:08;;;;;;;;;;;;;;;;;;6243354;28;20532;-84
2023/08/03 13:46:09;;;;;;;;;;;;;;;;;;6243792;28;20576;-83
2023/08/03 13:49:09;;;;;;;;;;;;;;;;;;6237406;28;19904;-84
2023/08/03 13:52:09;;;;;;;;;;;;;;;;;;6241479;28;20488;-85
2023/08/03 13:55:09;;;;;;;;;;;;;;;;;;6243250;28;19919;-83
2023/08/03 13:58:09;;;;;;;;;;;;;;;;;;6243826;28;19909;-84
2023/08/03 14:01:09;;;;;;;;;;;;;;;;;;6243718;28;19909;-85
2023/08/03 14:04:15;;;;;;;;;;;;;;;;;;6238467;28;19909;-84
2023/08/03 14:07:17;;;;;;;;;;;;;;;;;;6242035;28;19921;-85
2023/08/03 14:10:17;;;;;;;;;;;;;;;;;;6244033;28;19909;-86
2023/08/03 14:13:17;;;;;;;;;;;;;;;;;;6243069;28;19909;-85
2023/08/03 14:16:17;;;;;;;;;;;;;;;;;;6241804;28;19940;-85
2023/08/03 14:19:18;;;;;;;;;;;;;;;;;;6240761;28;19913;-83
2023/08/03 14:22:18;;;;;;;;;;;;;;;;;;6242584;28;19905;-82
2023/08/03 14:25:18;;;;;;;;;;;;;;;;;;6243157;28;20426;-77
2023/08/03 14:28:18;;;;;;;;;;;;;;;;;;6241896;28;19913;-78
2023/08/03 14:31:19;;;;;;;;;;;;;;;;;;6241510;28;19913;-77
2023/08/03 14:34:19;;;;;;;;;;;;;;;;;;6243249;28;20363;-77
2023/08/03 14:37:19;;;;;;;;;;;;;;;;;;6243159;28;19955;-77
2023/08/03 14:40:19;;;;;;;;;;;;;;;;;;6242772;28;19954;-76
2023/08/03 14:43:19;;;;;;;;;;;;;;;;;;6235144;28;19913;-77
2023/08/03 14:46:19;;;;;;;;;;;;;;;;;;6238812;28;19905;-77
2023/08/03 14:49:22;;;;;;;;;;;;;;;;;;6242794;28;19909;-77
2023/08/03 14:52:22;;;;;;;;;;;;;;;;;;6240637;28;19923;-78
2023/08/03 14:55:22;;;;;;;;;;;;;;;;;;6237056;28;19917;-77
2023/08/03 14:58:22;;;;;;;;;;;;;;;;;;6242404;28;19916;-77
2023/08/03 15:01:22;;;;;;;;;;;;;;;;;;6241937;28;19956;-78
2023/08/03 15:04:22;;;;;;;;;;;;;;;;;;6238550;28;20019;-77
2023/08/03 15:07:22;;;;;;;;;;;;;;;;;;6242479;28;19920;-82
2023/08/03 15:10:22;;;;;;;;;;;;;;;;;;6239491;28;19917;-82
2023/08/03 15:13:23;;;;;;;;;;;;;;;;;;6238241;28;20279;-82
2023/08/03 15:16:23;;;;;;;;;;;;;;;;;;6240767;28;19909;-82
2023/08/03 15:19:23;;;;;;;;;;;;;;;;;;6242056;28;19986;-82
2023/08/03 15:22:23;;;;;;;;;;;;;;;;;;6243940;28;19905;-82
2023/08/03 15:25:23;;;;;;;;;;;;;;;;;;6240902;28;20386;-82
2023/08/03 15:28:23;;;;;;;;;;;;;;;;;;6248213;28;19909;-81
2023/08/03 15:31:24;;;;;;;;;;;;;;;;;;6245498;28;19909;-81
2023/08/03 15:34:24;;;;;;;;;;;;;;;;;;6247782;28;20017;-81
2023/08/03 15:37:24;;;;;;;;;;;;;;;;;;6248361;28;19932;-82
2023/08/03 15:40:24;;;;;;;;;;;;;;;;;;6247988;28;19916;-82
2023/08/03 15:43:24;;;;;;;;;;;;;;;;;;6247001;28;19967;-82
2023/08/03 15:46:24;;;;;;;;;;;;;;;;;;6242605;28;19959;-82
2023/08/03 15:49:25;;;;;;;;;;;;;;;;;;6246061;28;19913;-82
2023/08/03 15:52:25;;;;;;;;;;;;;;;;;;6245027;28;19952;-82
2023/08/03 15:55:25;;;;;;;;;;;;;;;;;;6245303;28;19917;-82
2023/08/03 15:58:25;;;;;;;;;;;;;;;;;;6248116;28;20232;-82
2023/08/03 16:01:25;;;;;;;;;;;;;;;;;;6248262;28;19909;-82
2023/08/03 16:04:25;;;;;;;;;;;;;;;;;;6244835;28;19912;-84
2023/08/03 16:07:25;;;;;;;;;;;;;;;;;;6261286;28;19923;-83
2023/08/03 16:10:25;;;;;;;;;;;;;;;;;;6242891;28;20370;-83
2023/08/03 16:13:25;;;;;;;;;;;;;;;;;;6257078;28;19916;-82
2023/08/03 16:16:26;;;;;;;;;;;;;;;;;;6253037;28;20301;-82
2023/08/03 16:19:26;;;;;;;;;;;;;;;;;;6260509;28;19909;-83
2023/08/03 16:22:26;;;;;;;;;;;;;;;;;;6243737;28;19951;-83
2023/08/03 16:25:26;;;;;;;;;;;;;;;;;;6244102;28;20016;-82
2023/08/03 16:28:29;;;;;;;;;;;;;;;;;;6251067;28;19974;-82
2023/08/03 16:31:32;;;;;;;;;;;;;;;;;;6258080;28;19951;-83
2023/08/03 16:34:32;;;;;;;;;;;;;;;;;;6257250;28;19917;-83
2023/08/03 16:37:32;;;;;;;;;;;;;;;;;;6244752;28;19917;-83
2023/08/03 16:40:32;;;;;;;;;;;;;;;;;;6244583;28;19921;-83
2023/08/03 16:43:33;;;;;;;;;;;;;;;;;;6236364;28;19921;-84
2023/08/03 16:46:33;;;;;;;;;;;;;;;;;;6250729;28;19990;-83
2023/08/03 16:49:34;;;;;;;;;;;;;;;;;;6252130;28;19958;-83
2023/08/03 16:52:35;;;;;;;;;;;;;;;;;;6257379;28;20378;-83
2023/08/03 16:55:35;;;;;;;;;;;;;;;;;;6244020;28;20608;-79
2023/08/03 16:58:36;;;;;;;;;;;;;;;;;;6238408;28;19916;-78
2023/08/03 17:01:36;;;;;;;;;;;;;;;;;;6230268;28;19988;-79
2023/08/03 17:04:37;;;;;;;;;;;;;;;;;;6232035;28;19951;-79
2023/08/03 17:07:40;;;;;;;;;;;;;;;;;;6247556;28;19920;-83
2023/08/03 17:10:40;;;;;;;;;;;;;;;;;;6260470;28;19963;-83
2023/08/03 17:13:40;;;;;;;;;;;;;;;;;;6246165;28;19909;-83
2023/08/03 17:16:40;;;;;;;;;;;;;;;;;;6250375;28;19912;-83
2023/08/03 17:19:40;;;;;;;;;;;;;;;;;;6242330;28;19947;-83
2023/08/03 17:22:41;;;;;;;;;;;;;;;;;;6250316;28;19916;-82
2023/08/03 17:25:41;;;;;;;;;;;;;;;;;;6268985;28;19909;-83
2023/08/03 17:28:41;;;;;;;;;;;;;;;;;;6249772;28;19920;-83
2023/08/03 17:31:41;;;;;;;;;;;;;;;;;;6243122;28;20248;-83
2023/08/03 17:34:41;;;;;;;;;;;;;;;;;;6247209;28;19944;-79
2023/08/03 17:37:41;;;;;;;;;;;;;;;;;;6243983;28;19912;-79
2023/08/03 17:40:42;;;;;;;;;;;;;;;;;;6247742;28;19905;-79
2023/08/03 17:43:42;;;;;;;;;;;;;;;;;;6240407;28;20298;-80
2023/08/03 17:46:42;;;;;;;;;;;;;;;;;;6249242;28;19944;-82
2023/08/03 17:49:43;;;;;;;;;;;;;;;;;;6246257;28;19913;-83
2023/08/03 17:52:43;;;;;;;;;;;;;;;;;;6246506;28;19966;-83
2023/08/03 17:55:43;;;;;;;;;;;;;;;;;;6252451;28;19919;-82
2023/08/03 17:58:43;;;;;;;;;;;;;;;;;;6245223;28;19970;-83
2023/08/03 18:01:43;;;;;;;;;;;;;;;;;;6228148;28;19979;-82
2023/08/03 18:04:44;;;;;;;;;;;;;;;;;;6251606;28;19954;-82
2023/08/03 18:07:46;;;;;;;;;;;;;;;;;;6243234;28;19925;-83
2023/08/03 18:10:47;;;;;;;;;;;;;;;;;;6244428;28;19999;-82
2023/08/03 18:13:47;;;;;;;;;;;;;;;;;;6241953;28;19958;-83
2023/08/03 18:16:47;;;;;;;;;;;;;;;;;;6243569;28;19913;-78
2023/08/03 18:19:47;;;;;;;;;;;;;;;;;;6238510;28;19908;-78
2023/08/03 18:22:47;;;;;;;;;;;;;;;;;;6239528;28;19916;-78
2023/08/03 18:25:47;;;;;;;;;;;;;;;;;;6238910;28;20700;-77
2023/08/03 18:28:47;;;;;;;;;;;;;;;;;;6244698;28;19921;-78
2023/08/03 18:31:47;;;;;;;;;;;;;;;;;;6239790;28;19959;-78
2023/08/03 18:34:48;;;;;;;;;;;;;;;;;;6241895;28;19917;-78
2023/08/03 18:37:49;;;;;;;;;;;;;;;;;;6241367;28;19905;-78
2023/08/03 18:40:49;;;;;;;;;;;;;;;;;;6239474;28;20364;-78
2023/08/03 18:43:49;;;;;;;;;;;;;;;;;;6236710;28;19909;-78
2023/08/03 18:46:49;;;;;;;;;;;;;;;;;;6239833;28;19915;-78
2023/08/03 18:49:49;;;;;;;;;;;;;;;;;;6241771;28;19909;-78
2023/08/03 18:52:49;;;;;;;;;;;;;;;;;;6238785;28;20045;-78
2023/08/03 18:55:49;;;;;;;;;;;;;;;;;;6240109;28;20371;-82
2023/08/03 18:58:50;;;;;;;;;;;;;;;;;;6239328;28;19928;-82
2023/08/03 19:01:50;;;;;;;;;;;;;;;;;;6238107;28;19967;-83
2023/08/03 19:04:50;;;;;;;;;;;;;;;;;;6243475;28;20343;-83
2023/08/03 19:07:50;;;;;;;;;;;;;;;;;;6242438;28;19921;-82
2023/08/03 19:10:50;;;;;;;;;;;;;;;;;;6252237;28;19909;-83
2023/08/03 19:13:51;;;;;;;;;;;;;;;;;;6245098;28;19905;-82
2023/08/03 19:16:51;;;;;;;;;;;;;;;;;;6243930;28;20011;-82
2023/08/03 19:19:51;;;;;;;;;;;;;;;;;;6242031;28;19975;-82
2023/08/03 19:22:51;;;;;;;;;;;;;;;;;;6248876;28;19915;-83
2023/08/03 19:25:51;;;;;;;;;;;;;;;;;;6254492;28;19915;-78
2023/08/03 19:28:51;;;;;;;;;;;;;;;;;;6241257;28;20299;-78
2023/08/03 19:31:51;;;;;;;;;;;;;;;;;;6242886;28;19912;-78
2023/08/03 19:34:51;;;;;;;;;;;;;;;;;;6238941;28;19914;-78
2023/08/03 19:37:51;;;;;;;;;;;;;;;;;;6240867;28;19909;-78
2023/08/03 19:40:54;;;;;;;;;;;;;;;;;;6244879;28;19960;-78
2023/08/03 19:43:54;;;;;;;;;;;;;;;;;;6247799;28;19908;-78
2023/08/03 19:46:54;;;;;;;;;;;;;;;;;;6242976;28;20295;-77
2023/08/03 19:49:54;;;;;;;;;;;;;;;;;;6237006;28;19916;-77
2023/08/03 19:52:54;;;;;;;;;;;;;;;;;;6243238;28;19913;-78
2023/08/03 19:55:54;;;;;;;;;;;;;;;;;;6243016;28;19954;-78
2023/08/03 19:58:55;;;;;;;;;;;;;;;;;;6242450;28;19905;-78
2023/08/03 20:01:55;;;;;;;;;;;;;;;;;;6242502;28;19905;-78
2023/08/03 20:04:55;;;;;;;;;;;;;;;;;;6242971;28;19916;-78
2023/08/03 20:07:56;;;;;;;;;;;;;;;;;;6240796;28;19925;-78
2023/08/03 20:10:56;;;;;;;;;;;;;;;;;;6241303;28;20421;-78
2023/08/03 20:13:56;;;;;;;;;;;;;;;;;;6240215;28;19909;-78
2023/08/03 20:16:56;;;;;;;;;;;;;;;;;;6241086;28;20291;-78
2023/08/03 20:19:56;;;;;;;;;;;;;;;;;;6245240;28;20351;-78
2023/08/03 20:22:56;;;;;;;;;;;;;;;;;;6246242;28;19905;-77
2023/08/03 20:25:56;;;;;;;;;;;;;;;;;;6242323;28;19912;-79
2023/08/03 20:28:56;;;;;;;;;;;;;;;;;;6249166;28;19905;-78
2023/08/03 20:31:57;;;;;;;;;;;;;;;;;;6245866;28;19909;-77
2023/08/03 20:34:57;;;;;;;;;;;;;;;;;;6239501;28;19916;-82